Time;durP1;ratioP1;P1;durP2;ratioP2;P2;SDS_P1;SDS_P2;PMS_P1;PMS_P2;Temp;Humidity;BMP_temperature;BMP_pressure;BME280_temperature;BME280_humidity;BME280_pressure;Samples;Min_cycle;Max_cycle;Signal;HPM_P1;HPM_P2
2022/11/22 00:01:58;;;;;;;;;;;21.20;49.30;;;;;;6047025;29;20043;-48
2022/11/22 00:04:59;;;;;;;;;;;20.20;49.40;;;;;;6046670;29;20002;-47
2022/11/22 00:08:00;;;;;;;1.48;0.77;;;20.30;49.60;;;;;;6058386;29;20030;-46
2022/11/22 00:11:02;;;;;;;;;;;20.50;49.50;;;;;;6047389;29;20765;-48
2022/11/22 00:14:04;;;;;;;2.22;0.77;;;20.60;49.70;;;;;;6043218;29;20015;-48
2022/11/22 00:17:06;;;;;;;2.10;0.82;;;20.10;49.40;;;;;;6040479;29;20048;-48
2022/11/22 00:20:10;;;;;;;1.92;0.85;;;20.50;49.50;;;;;;6045349;29;20643;-46
2022/11/22 00:23:12;;;;;;;2.17;1.15;;;20.60;49.30;;;;;;6026110;29;20051;-48
2022/11/22 00:26:13;;;;;;;1.42;0.60;;;20.70;49.40;;;;;;6044692;29;20036;-45
2022/11/22 00:29:15;;;;;;;1.95;0.82;;;20.10;49.20;;;;;;5798852;29;20571;-44
2022/11/22 00:32:17;;;;;;;1.83;0.82;;;20.20;49.40;;;;;;6046651;29;20730;-44
2022/11/22 00:35:19;;;;;;;1.80;0.60;;;20.40;49.30;;;;;;6045807;29;20958;-45
2022/11/22 00:38:20;;;;;;;3.40;1.25;;;20.20;49.50;;;;;;6044502;29;20103;-49
2022/11/22 00:41:22;;;;;;;2.05;1.02;;;20.60;49.10;;;;;;6043656;29;20797;-46
2022/11/22 00:44:23;;;;;;;;;;;20.30;49.20;;;;;;6061074;29;20048;-47
2022/11/22 00:47:26;;;;;;;3.28;0.95;;;20.50;49.70;;;;;;5555608;29;20441;-43
2022/11/22 00:50:28;;;;;;;2.38;0.88;;;20.60;49.70;;;;;;4001427;29;21612;-43
2022/11/22 00:53:30;;;;;;;2.25;0.95;;;20.30;50.00;;;;;;4389102;29;21732;-45
2022/11/22 00:56:32;;;;;;;2.42;0.90;;;20.50;49.60;;;;;;6044770;29;21258;-43
2022/11/22 00:59:33;;;;;;;;;;;20.00;49.40;;;;;;6044067;29;20147;-46
2022/11/22 01:02:36;;;;;;;2.35;0.82;;;20.50;49.90;;;;;;6043126;29;20018;-47
2022/11/22 01:05:38;;;;;;;2.80;1.30;;;20.30;67.90;;;;;;6045181;29;20036;-44
2022/11/22 01:08:40;;;;;;;2.40;1.00;;;20.30;67.30;;;;;;4572304;29;21734;-45
2022/11/22 01:11:43;;;;;;;3.30;0.98;;;20.10;49.90;;;;;;6041440;29;20068;-46
2022/11/22 01:14:44;;;;;;;2.70;1.00;;;20.30;49.80;;;;;;6046167;29;20040;-49
2022/11/22 01:17:46;;;;;;;;;;;20.40;49.80;;;;;;6049011;29;20879;-43
2022/11/22 01:20:48;;;;;;;;;;;20.00;50.00;;;;;;6050424;29;19930;-44
2022/11/22 01:23:49;;;;;;;3.40;1.58;;;20.70;50.50;;;;;;6044206;29;21064;-44
2022/11/22 01:26:50;;;;;;;3.28;1.10;;;20.20;50.00;;;;;;6042962;29;20051;-43
2022/11/22 01:29:52;;;;;;;3.38;1.23;;;20.60;50.40;;;;;;6044160;29;20079;-44
2022/11/22 01:32:54;;;;;;;3.15;1.50;;;20.50;50.50;;;;;;6043655;29;20080;-44
2022/11/22 01:35:57;;;;;;;2.97;1.15;;;20.10;50.50;;;;;;6043268;29;20036;-44
2022/11/22 01:38:58;;;;;;;2.65;0.95;;;20.00;50.20;;;;;;6044846;29;20283;-43
2022/11/22 01:42:00;;;;;;;3.05;1.23;;;20.60;50.60;;;;;;6051505;29;20970;-45
2022/11/22 01:45:17;;;;;;;;;;;20.30;50.20;;;;;;6047661;29;20067;-54
2022/11/22 01:48:24;;;;;;;1.73;0.73;;;20.60;49.50;;;;;;6029175;29;20050;-42
2022/11/22 01:51:31;;;;;;;3.35;1.08;;;20.30;49.90;;;;;;6045499;29;20059;-44
2022/11/22 01:54:38;;;;;;;2.15;0.98;;;20.50;50.00;;;;;;6035385;29;20043;-45
2022/11/22 01:57:42;;;;;;;3.60;1.23;;;20.60;49.90;;;;;;6043690;29;20044;-42
2022/11/22 02:00:43;;;;;;;1.80;0.77;;;20.60;49.60;;;;;;6044855;29;20052;-45
2022/11/22 02:03:48;;;;;;;1.55;0.88;;;20.50;49.70;;;;;;6042352;29;20048;-44
2022/11/22 02:06:57;;;;;;;2.42;1.08;;;20.40;49.50;;;;;;6042562;29;20036;-46
2022/11/22 02:09:58;;;;;;;2.40;0.75;;;20.70;68.10;;;;;;6047706;29;20904;-44
2022/11/22 02:13:01;;;;;;;1.45;0.55;;;20.40;49.60;;;;;;6044085;29;20048;-45
2022/11/22 02:16:03;;;;;;;1.80;0.80;;;20.20;49.40;;;;;;6049186;29;20925;-44
2022/11/22 02:19:13;;;;;;;2.08;0.80;;;20.60;49.60;;;;;;6040729;29;20048;-44
2022/11/22 02:22:24;;;;;;;1.63;0.60;;;20.50;49.40;;;;;;6035462;29;20430;-46
2022/11/22 02:25:29;;;;;;;;;;;20.40;49.30;;;;;;6024146;29;20367;-43
2022/11/22 02:28:35;;;;;;;1.88;1.10;;;20.00;49.60;;;;;;6036773;29;20434;-43
2022/11/22 02:31:40;;;;;;;1.45;0.60;;;20.10;49.10;;;;;;6039099;29;20373;-45
2022/11/22 02:34:45;;;;;;;0.77;0.50;;;20.30;49.20;;;;;;6032215;29;20056;-43
2022/11/22 02:37:47;;;;;;;1.60;0.50;;;20.50;49.10;;;;;;6034857;29;20498;-43
2022/11/22 02:40:52;;;;;;;1.13;0.43;;;20.30;49.00;;;;;;6039548;29;20048;-45
2022/11/22 02:43:54;;;;;;;1.20;0.55;;;20.40;49.00;;;;;;6036990;29;20058;-44
2022/11/22 02:46:56;;;;;;;1.08;0.38;;;20.10;48.90;;;;;;6039686;29;20625;-42
2022/11/22 02:49:57;;;;;;;;;;;20.50;48.90;;;;;;6039965;29;20724;-45
2022/11/22 02:52:58;;;;;;;0.80;0.40;;;20.10;49.30;;;;;;6037352;29;20631;-43
2022/11/22 02:56:00;;;;;;;;;;;20.60;49.20;;;;;;6038013;29;20522;-43
2022/11/22 02:59:02;;;;;;;0.68;0.30;;;20.00;49.30;;;;;;6039831;29;19962;-43
2022/11/22 03:02:03;;;;;;;1.95;0.60;;;20.30;49.20;;;;;;6037234;29;20049;-44
2022/11/22 03:05:04;;;;;;;;;;;20.10;48.80;;;;;;6037658;29;20370;-43
2022/11/22 03:08:06;;;;;;;0.98;0.30;;;20.30;49.20;;;;;;6039086;29;20080;-42
2022/11/22 03:11:07;;;;;;;;;;;20.90;49.00;;;;;;6040827;29;20317;-44
2022/11/22 03:14:09;;;;;;;0.57;0.20;;;19.80;48.80;;;;;;6038876;29;19931;-44
2022/11/22 03:17:13;;;;;;;1.30;0.60;;;20.00;48.60;;;;;;6036904;29;20051;-47
2022/11/22 03:20:14;;;;;;;0.63;0.32;;;20.10;48.80;;;;;;6039251;29;20048;-43
2022/11/22 03:23:16;;;;;;;;;;;20.50;49.00;;;;;;6035754;29;20044;-45
2022/11/22 03:26:17;;;;;;;0.63;0.32;;;20.40;49.10;;;;;;6034432;29;20464;-43
2022/11/22 03:29:19;;;;;;;0.65;0.20;;;20.30;48.80;;;;;;6038727;29;20050;-43
2022/11/22 03:32:20;;;;;;;0.93;0.47;;;20.20;48.80;;;;;;6035783;29;20239;-43
2022/11/22 03:35:22;;;;;;;0.77;0.20;;;20.10;48.50;;;;;;6034284;29;20371;-46
2022/11/22 03:38:23;;;;;;;;;;;20.30;48.70;;;;;;6036495;29;20104;-43
2022/11/22 03:41:25;;;;;;;0.50;0.20;;;20.60;49.10;;;;;;6039111;29;20086;-46
2022/11/22 03:44:27;;;;;;;0.40;0.20;;;20.70;49.00;;;;;;6034245;29;20035;-43
2022/11/22 03:47:28;;;;;;;0.40;0.30;;;20.50;48.90;;;;;;6037151;29;20401;-42
2022/11/22 03:50:30;;;;;;;;;;;20.00;48.10;;;;;;6037980;29;20828;-42
2022/11/22 03:53:32;;;;;;;0.82;0.20;;;20.00;48.80;;;;;;6038713;29;20481;-48
2022/11/22 03:56:33;;;;;;;0.25;0.22;;;20.70;48.80;;;;;;6037652;29;20059;-42
2022/11/22 03:59:35;;;;;;;0.77;0.40;;;20.20;47.80;;;;;;6041297;29;20484;-45
2022/11/22 04:02:37;;;;;;;0.85;0.40;;;20.20;47.10;;;;;;6036987;29;20055;-44
2022/11/22 04:05:38;;;;;;;0.28;0.20;;;20.30;47.30;;;;;;6034729;29;20711;-44
2022/11/22 04:08:40;;;;;;;0.32;0.20;;;20.40;65.30;;;;;;6037486;29;20063;-43
2022/11/22 04:11:41;;;;;;;;;;;20.10;47.90;;;;;;6038159;29;20218;-42
2022/11/22 04:17:59;;;;;;;0.30;0.30;;;20.40;48.20;;;;;;6036271;29;20329;-45
2022/11/22 04:27:25;;;;;;;0.47;0.30;;;20.30;48.30;;;;;;6040725;29;20040;-42
2022/11/22 04:33:43;;;;;;;0.45;0.30;;;20.20;48.60;;;;;;6032329;29;19993;-44
2022/11/22 04:36:44;;;;;;;;;;;20.30;48.60;;;;;;6037315;29;20425;-44
2022/11/22 04:39:46;;;;;;;0.63;0.20;;;20.10;48.80;;;;;;6037980;29;19962;-42
2022/11/22 04:46:03;;;;;;;1.42;0.68;;;20.30;48.80;;;;;;6040242;29;20574;-46
2022/11/22 04:49:05;;;;;;;0.35;0.28;;;20.30;48.60;;;;;;6046355;29;20056;-42
2022/11/22 04:55:23;;;;;;;0.73;0.45;;;20.20;48.80;;;;;;6041583;29;20053;-43
2022/11/22 04:58:24;;;;;;;;;;;19.60;48.40;;;;;;6039394;29;20048;-42
2022/11/22 05:01:26;;;;;;;1.02;0.30;;;20.30;49.00;;;;;;6042725;29;21676;-43
2022/11/22 05:04:28;;;;;;;0.60;0.25;;;20.50;48.70;;;;;;6040944;29;20082;-43
2022/11/22 05:07:29;;;;;;;1.13;0.35;;;19.90;48.30;;;;;;6042016;29;20167;-45
2022/11/22 05:10:55;;;;;;;;;;;20.00;48.30;;;;;;6039149;29;20050;-44
2022/11/22 05:13:53;;;;;;;;;;;20.50;48.70;;;;;;6055101;29;20153;-43
2022/11/22 05:16:55;;;;;;;0.55;0.30;;;20.20;48.60;;;;;;6043379;29;20494;-42
2022/11/22 05:19:56;;;;;;;1.00;0.40;;;20.40;48.60;;;;;;6042873;29;20070;-42
2022/11/22 05:26:13;;;;;;;0.90;0.50;;;20.40;49.00;;;;;;6036416;29;20361;-42
2022/11/22 05:29:14;;;;;;;1.30;0.40;;;20.40;48.90;;;;;;6041122;29;20044;-42
2022/11/22 05:32:16;;;;;;;0.68;0.28;;;20.20;48.70;;;;;;6039693;29;20546;-44
2022/11/22 05:35:18;;;;;;;1.02;0.40;;;20.60;48.90;;;;;;6038035;29;20083;-42
2022/11/22 05:38:19;;;;;;;0.77;0.43;;;20.40;48.90;;;;;;6040518;29;20452;-43
2022/11/22 05:41:21;;;;;;;;;;;20.10;48.70;;;;;;6042262;29;20466;-45
2022/11/22 05:44:22;;;;;;;1.42;0.57;;;20.40;49.20;;;;;;6038884;29;20002;-42
2022/11/22 05:47:24;;;;;;;1.15;0.40;;;20.40;49.00;;;;;;6038765;29;20587;-42
2022/11/22 05:50:26;;;;;;;1.10;0.65;;;20.40;48.90;;;;;;6037781;29;20307;-44
2022/11/22 05:53:28;;;;;;;1.45;0.50;;;20.00;48.50;;;;;;6033321;29;20430;-43
2022/11/22 05:56:30;;;;;;;0.70;0.30;;;20.10;48.60;;;;;;6037682;29;20580;-45
2022/11/22 05:59:31;;;;;;;;;;;20.40;48.10;;;;;;6037687;29;20048;-44
2022/11/22 06:02:34;;;;;;;;;;;20.50;48.80;;;;;;6043937;29;19981;-44
2022/11/22 06:05:36;;;;;;;0.55;0.30;;;20.10;48.70;;;;;;6038946;29;20477;-44
2022/11/22 06:08:39;;;;;;;1.10;0.55;;;20.10;65.90;;;;;;6044864;29;20076;-46
2022/11/22 06:11:41;;;;;;;0.52;0.30;;;20.40;48.60;;;;;;6043154;29;20159;-43
2022/11/22 06:14:44;;;;;;;0.47;0.25;;;19.90;48.20;;;;;;6049465;29;20139;-44
2022/11/22 06:17:47;;;;;;;0.88;0.40;;;20.00;48.30;;;;;;6045567;29;20040;-46
2022/11/22 06:20:48;;;;;;;0.63;0.40;;;20.40;48.30;;;;;;6045618;29;20207;-45
2022/11/22 06:23:49;;;;;;;;;;;20.40;48.00;;;;;;6049023;29;20079;-45
2022/11/22 06:26:51;;;;;;;0.50;0.40;;;20.20;48.50;;;;;;6044625;29;21510;-45
2022/11/22 06:29:52;;;;;;;0.75;0.32;;;20.20;48.30;;;;;;6037812;29;21159;-42
2022/11/22 06:32:55;;;;;;;;;;;20.20;48.30;;;;;;4529545;29;20048;-44
2022/11/22 06:36:01;;;;;;;0.40;0.30;;;20.30;48.60;;;;;;6037749;29;20854;-44
2022/11/22 06:39:03;;;;;;;0.65;0.35;;;20.00;48.10;;;;;;6035588;29;20051;-44
2022/11/22 06:42:05;;;;;;;0.75;0.30;;;20.10;48.20;;;;;;6017327;29;20048;-44
2022/11/22 06:45:06;;;;;;;;;;;20.50;48.20;;;;;;6036213;29;20051;-48
2022/11/22 06:48:09;;;;;;;0.50;0.30;;;20.30;48.60;;;;;;6035183;29;19933;-43
2022/11/22 06:51:12;;;;;;;0.55;0.30;;;19.80;48.20;;;;;;6032535;29;20154;-44
2022/11/22 06:54:14;;;;;;;0.45;0.28;;;20.30;48.30;;;;;;6035692;29;20986;-45
2022/11/22 06:57:15;;;;;;;1.33;0.30;;;20.40;48.60;;;;;;6032292;29;20046;-46
2022/11/22 07:00:18;;;;;;;;;;;20.50;47.90;;;;;;6034499;29;20160;-43
2022/11/22 07:03:20;;;;;;;0.95;0.40;;;20.40;48.50;;;;;;6035186;29;19939;-42
2022/11/22 07:06:22;;;;;;;0.50;0.30;;;20.40;48.60;;;;;;6024574;29;20048;-44
2022/11/22 07:09:24;;;;;;;0.25;0.20;;;20.20;48.30;;;;;;6038593;29;20091;-43
2022/11/22 07:12:25;;;;;;;;;;;20.50;48.30;;;;;;6017956;29;20464;-43
2022/11/22 07:15:27;;;;;;;0.25;0.20;;;20.50;49.00;;;;;;6017911;29;19938;-44
2022/11/22 07:18:29;;;;;;;0.80;0.40;;;20.10;48.30;;;;;;6025768;29;20169;-44
2022/11/22 07:21:31;;;;;;;0.35;0.22;;;20.10;48.40;;;;;;6018365;29;20965;-43
2022/11/22 07:24:32;;;;;;;0.20;0.20;;;20.10;48.00;;;;;;6012409;29;20792;-45
2022/11/22 07:27:34;;;;;;;1.50;0.40;;;20.30;48.30;;;;;;6014953;29;20052;-48
2022/11/22 07:30:35;;;;;;;1.05;0.32;;;20.40;48.00;;;;;;6004845;29;20139;-46
2022/11/22 07:33:44;;;;;;;0.40;0.30;;;20.30;48.10;;;;;;5987858;29;21498;-44
2022/11/22 07:36:45;;;;;;;0.60;0.25;;;20.60;48.20;;;;;;5978722;29;20099;-46
2022/11/22 07:39:47;;;;;;;0.52;0.20;;;20.40;48.30;;;;;;5986200;29;20043;-44
2022/11/22 07:42:48;;;;;;;;;;;20.60;48.10;;;;;;5969039;29;20059;-44
2022/11/22 07:45:50;;;;;;;0.25;0.10;;;20.70;48.80;;;;;;5920317;29;19938;-45
2022/11/22 07:48:52;;;;;;;0.50;0.20;;;20.70;48.30;;;;;;5933882;29;20048;-44
2022/11/22 07:51:54;;;;;;;0.38;0.35;;;20.40;48.20;;;;;;5906447;29;20056;-45
2022/11/22 07:54:55;;;;;;;;;;;20.60;48.40;;;;;;5878493;29;20056;-44
2022/11/22 07:57:58;;;;;;;0.73;0.38;;;20.60;48.80;;;;;;5903907;29;20061;-45
2022/11/22 08:01:05;;;;;;;1.02;0.40;;;20.60;48.30;;;;;;5859249;28;20044;-45
2022/11/22 08:04:08;;;;;;;2.78;0.20;;;20.70;48.40;;;;;;5842371;29;21576;-45
2022/11/22 08:07:10;;;;;;;0.90;0.40;;;20.70;49.10;;;;;;5758378;29;20059;-45
2022/11/22 08:10:12;;;;;;;0.73;0.30;;;20.60;48.60;;;;;;5733870;29;20049;-47
2022/11/22 08:13:13;;;;;;;0.47;0.30;;;20.70;48.00;;;;;;4831028;29;20185;-48
2022/11/22 08:16:17;;;;;;;1.38;0.45;;;20.30;48.20;;;;;;4928877;29;20793;-45
2022/11/22 08:19:20;;;;;;;0.60;0.20;;;20.70;49.60;;;;;;4383492;29;21329;-44
2022/11/22 08:22:21;;;;;;;0.70;0.30;;;21.30;48.70;;;;;;5766282;29;20127;-44
2022/11/22 08:25:23;;;;;;;0.50;0.30;;;20.50;48.60;;;;;;5766395;29;29301;-45
2022/11/22 08:28:24;;;;;;;1.40;0.30;;;20.70;49.10;;;;;;5790427;29;20090;-44
2022/11/22 08:31:27;;;;;;;0.25;0.17;;;20.90;48.80;;;;;;5755295;29;20186;-43
2022/11/22 08:34:29;;;;;;;0.57;0.32;;;20.80;49.30;;;;;;5777974;29;21642;-43
2022/11/22 08:37:31;;;;;;;0.80;0.20;;;20.60;48.70;;;;;;5773225;29;20056;-43
2022/11/22 08:40:33;;;;;;;1.08;0.38;;;20.80;49.50;;;;;;5756125;29;21954;-44
2022/11/22 08:43:42;;;;;;;1.38;0.30;;;20.90;47.10;;;;;;4914107;29;21508;-45
2022/11/22 08:46:45;;;;;;;0.52;0.20;;;20.60;49.80;;;;;;4398054;29;20090;-43
2022/11/22 08:49:47;;;;;;;0.57;0.20;;;20.60;48.60;;;;;;5732544;29;20056;-54
2022/11/22 08:52:49;;;;;;;0.25;0.15;;;20.50;49.00;;;;;;5781608;29;25796;-49
2022/11/22 08:55:51;;;;;;;0.32;0.20;;;18.90;47.60;;;;;;5735924;29;20051;-45
2022/11/22 08:58:53;;;;;;;0.52;0.30;;;20.60;48.80;;;;;;5714672;29;20048;-46
2022/11/22 09:01:55;;;;;;;0.75;0.20;;;20.60;48.80;;;;;;5654423;29;21928;-43
2022/11/22 09:04:59;;;;;;;0.20;0.20;;;21.00;48.80;;;;;;5707154;29;20060;-43
2022/11/22 09:08:01;;;;;;;0.30;0.20;;;21.00;47.10;;;;;;5694995;29;20075;-46
2022/11/22 09:11:26;;;;;;;0.50;0.28;;;20.90;48.60;;;;;;5082928;29;23260;-45
2022/11/22 09:14:36;;;;;;;0.57;0.30;;;21.00;49.80;;;;;;5016758;29;21864;-44
2022/11/22 09:17:46;;;;;;;0.68;0.30;;;20.60;49.60;;;;;;4447238;29;23951;-43
2022/11/22 09:20:56;;;;;;;0.80;0.40;;;21.20;48.20;;;;;;5760884;29;20231;-45
2022/11/22 09:23:57;;;;;;;0.43;0.30;;;21.20;48.40;;;;;;5759898;29;22279;-43
2022/11/22 09:26:59;;;;;;;0.63;0.32;;;21.00;48.50;;;;;;5733054;29;20052;-46
2022/11/22 09:30:00;;;;;;;;;;;21.50;48.40;;;;;;5748587;29;20142;-45
2022/11/22 09:33:02;;;;;;;0.43;0.25;;;20.80;48.10;;;;;;5757615;29;19937;-46
2022/11/22 09:36:07;;;;;;;0.50;0.30;;;20.80;48.20;;;;;;5763003;29;22334;-45
2022/11/22 09:39:09;;;;;;;0.63;0.32;;;21.20;47.90;;;;;;5402702;29;21342;-45
2022/11/22 09:42:27;;;;;;;0.63;0.30;;;21.00;48.50;;;;;;5763505;29;21709;-43
2022/11/22 09:45:41;;;;;;;0.70;0.40;;;21.20;48.00;;;;;;5763192;29;20212;-45
2022/11/22 09:49:07;;;;;;;0.40;0.30;;;21.40;48.10;;;;;;5717988;29;20067;-43
2022/11/22 09:52:17;;;;;;;0.85;0.52;;;20.90;47.90;;;;;;5767413;29;29853;-43
2022/11/22 10:00:17;;;;;;;0.43;0.30;;;21.10;47.40;;;;;;3463889;29;21547;-43
2022/11/22 10:03:41;;;;;;;0.43;0.30;;;20.60;47.60;;;;;;4131421;29;24816;-46
2022/11/22 10:06:45;;;;;;;0.68;0.30;;;21.20;48.20;;;;;;5709728;29;23692;-45
2022/11/22 10:09:52;;;;;;;0.52;0.20;;;20.60;48.10;;;;;;5761849;29;20051;-46
2022/11/22 10:13:01;;;;;;;0.40;0.30;;;21.30;48.30;;;;;;5744606;29;20049;-46
2022/11/22 10:16:13;;;;;;;0.40;0.22;;;21.30;48.50;;;;;;5756379;29;20079;-47
2022/11/22 10:19:21;;;;;;;0.60;0.20;;;21.30;48.20;;;;;;5776357;29;22856;-50
2022/11/22 10:22:27;;;;;;;0.25;0.20;;;21.30;48.10;;;;;;5802491;29;21275;-44
2022/11/22 10:25:38;;;;;;;0.70;0.20;;;21.30;47.90;;;;;;5784796;29;20135;-46
2022/11/22 10:28:52;;;;;;;0.60;0.20;;;21.30;48.20;;;;;;4521269;29;21284;-45
2022/11/22 10:32:13;;;;;;;0.77;0.30;;;21.10;48.50;;;;;;4195576;29;21778;-42
2022/11/22 10:49:28;;;;;;;1.10;0.45;;;20.90;46.80;;;;;;3805968;29;22905;-48
2022/11/22 10:58:08;;;;;;;0.50;0.20;;;21.20;66.60;;;;;;3500956;29;23294;-45
2022/11/22 11:02:08;;;;;;;0.95;0.47;;;20.90;46.70;;;;;;3508727;29;21804;-45
2022/11/22 11:09:54;;;;;;;0.95;0.25;;;20.60;46.40;;;;;;3499109;29;23125;-42
2022/11/22 11:13:22;;;;;;;0.65;0.20;;;20.70;48.50;;;;;;3337466;29;23738;-45
2022/11/22 11:16:29;;;;;;;0.50;0.30;;;21.20;48.40;;;;;;5663246;29;20194;-47
2022/11/22 11:19:36;;;;;;;0.70;0.30;;;21.30;47.60;;;;;;5704473;29;20221;-44
2022/11/22 11:22:44;;;;;;;0.47;0.30;;;21.40;47.40;;;;;;5314811;29;21932;-44
2022/11/22 11:26:19;;;;;;;0.50;0.20;;;21.20;48.00;;;;;;5713368;29;22524;-45
2022/11/22 11:29:41;;;;;;;1.00;0.40;;;21.60;47.40;;;;;;5772940;29;20596;-43
2022/11/22 11:32:51;;;;;;;0.90;0.30;;;21.40;47.40;;;;;;5801931;29;20053;-47
2022/11/22 11:35:56;;;;;;;0.65;0.28;;;21.50;47.40;;;;;;5820406;29;20053;-45
2022/11/22 11:38:59;;;;;;;0.75;0.28;;;21.40;47.40;;;;;;5792494;29;20049;-47
2022/11/22 11:42:21;;;;;;;1.05;0.30;;;21.50;47.10;;;;;;5858239;29;20095;-47
2022/11/22 11:45:27;;;;;;;0.55;0.20;;;21.40;46.90;;;;;;5847834;29;20052;-45
2022/11/22 11:48:36;;;;;;;0.95;0.47;;;21.40;46.80;;;;;;5872469;29;20070;-51
2022/11/22 11:51:41;;;;;;;0.85;0.30;;;21.50;46.70;;;;;;5884218;29;20053;-50
2022/11/22 11:54:45;;;;;;;0.88;0.40;;;21.40;46.40;;;;;;5885113;29;20056;-49
2022/11/22 12:11:48;;;;;;;0.77;0.30;;;21.40;43.40;;;;;;5927877;29;20179;-47
2022/11/22 12:15:10;;;;;;;1.02;0.40;;;21.50;46.60;;;;;;5945007;29;20042;-45
2022/11/22 12:18:29;;;;;;;0.80;0.57;;;21.40;46.30;;;;;;5938592;28;20191;-44
2022/11/22 12:21:41;;;;;;;0.73;0.35;;;21.30;46.30;;;;;;5951241;29;21290;-48
2022/11/22 12:24:47;;;;;;;;;;;21.50;46.10;;;;;;5960552;28;20044;-45
2022/11/22 12:28:17;;;;;;;0.70;0.40;;;21.30;46.40;;;;;;5931342;28;20774;-44
2022/11/22 12:31:28;;;;;;;0.80;0.40;;;21.50;46.20;;;;;;5946956;29;20054;-46
2022/11/22 12:34:32;;;;;;;;;;;21.60;46.00;;;;;;5926365;28;20083;-49
2022/11/22 12:37:41;;;;;;;0.45;0.28;;;21.70;46.70;;;;;;5916417;28;20013;-44
2022/11/22 12:40:46;;;;;;;1.25;0.30;;;21.60;46.40;;;;;;5926431;29;20043;-43
2022/11/22 12:43:55;;;;;;;0.50;0.30;;;21.40;46.10;;;;;;5879596;29;20106;-47
2022/11/22 12:47:00;;;;;;;0.57;0.30;;;21.50;46.20;;;;;;5855366;29;20169;-46
2022/11/22 12:50:08;;;;;;;0.47;0.30;;;21.50;45.90;;;;;;5875583;28;22893;-45
2022/11/22 12:53:32;;;;;;;1.13;0.30;;;21.50;46.10;;;;;;4186653;29;21807;-44
2022/11/22 12:56:47;;;;;;;0.63;0.30;;;21.00;44.90;;;;;;3854213;29;23024;-43
2022/11/22 12:59:57;;;;;;;1.58;0.30;;;20.80;45.70;;;;;;4791479;29;31080;-47
2022/11/22 13:03:03;;;;;;;1.20;0.30;;;21.00;47.10;;;;;;5429677;29;21954;-44
2022/11/22 13:06:09;;;;;;;0.68;0.45;;;21.80;45.90;;;;;;3311425;29;24117;-43
2022/11/22 13:09:47;;;;;;;1.00;0.25;;;21.20;46.10;;;;;;3243968;29;22932;-44
2022/11/22 13:12:52;;;;;;;1.05;0.47;;;21.10;44.60;;;;;;3548219;29;22039;-45
2022/11/22 13:15:57;;;;;;;1.00;0.45;;;21.60;47.30;;;;;;3519157;29;24530;-46
2022/11/22 13:19:03;;;;;;;0.80;0.30;;;20.90;46.80;;;;;;3489017;29;21656;-44
2022/11/22 13:22:28;;;;;;;1.70;0.40;;;21.60;45.90;;;;;;3605970;29;22510;-42
2022/11/22 13:25:45;;;;;;;0.50;0.30;;;20.90;43.70;;;;;;5267291;29;22793;-45
2022/11/22 13:28:47;;;;;;;0.98;0.40;;;21.60;45.70;;;;;;5751549;29;27954;-44
2022/11/22 13:32:04;;;;;;;0.65;0.28;;;21.80;45.70;;;;;;5776059;29;20057;-43
2022/11/22 13:35:21;;;;;;;0.60;0.35;;;21.50;45.30;;;;;;5779174;29;21479;-52
2022/11/22 13:38:23;;;;;;;0.50;0.20;;;21.80;45.40;;;;;;5766924;29;21891;-43
2022/11/22 13:41:30;;;;;;;0.95;0.40;;;21.40;45.40;;;;;;5798812;29;20250;-43
2022/11/22 13:44:38;;;;;;;1.00;0.40;;;21.60;45.30;;;;;;5811007;29;20048;-44
2022/11/22 13:47:42;;;;;;;1.00;0.35;;;21.20;45.00;;;;;;5767119;29;20568;-46
2022/11/22 13:51:03;;;;;;;1.67;0.40;;;21.70;45.40;;;;;;5786516;29;20044;-45
2022/11/22 13:54:23;;;;;;;0.38;0.22;;;21.70;45.10;;;;;;5810868;29;20175;-46
2022/11/22 13:57:29;;;;;;;1.15;0.77;;;21.70;45.00;;;;;;5796737;29;20048;-43
2022/11/22 14:00:39;;;;;;;0.82;0.30;;;21.50;44.60;;;;;;5766889;29;20062;-45
2022/11/22 14:03:44;;;;;;;0.57;0.32;;;21.30;44.90;;;;;;5787926;29;20051;-44
2022/11/22 14:06:48;;;;;;;0.95;0.30;;;21.60;45.10;;;;;;5766701;29;20048;-44
2022/11/22 14:09:55;;;;;;;2.00;0.40;;;21.60;44.60;;;;;;5685663;29;20719;-44
2022/11/22 14:13:20;;;;;;;1.55;0.20;;;21.90;44.80;;;;;;5748091;29;20141;-44
2022/11/22 14:16:33;;;;;;;0.93;0.40;;;21.70;44.70;;;;;;5765202;29;21071;-44
2022/11/22 14:19:49;;;;;;;0.80;0.40;;;21.60;44.50;;;;;;5772601;29;20054;-44
2022/11/22 14:22:57;;;;;;;0.57;0.40;;;22.30;44.60;;;;;;5753247;29;20059;-44
2022/11/22 14:26:15;;;;;;;1.85;0.32;;;21.10;44.20;;;;;;5755110;29;20763;-44
2022/11/22 14:29:41;;;;;;;0.77;0.40;;;21.70;44.30;;;;;;5762379;29;20091;-45
2022/11/22 14:32:53;;;;;;;0.98;0.30;;;21.90;44.60;;;;;;5757518;29;28214;-43
2022/11/22 14:36:14;;;;;;;1.08;0.32;;;21.60;44.00;;;;;;5778110;29;20044;-46
2022/11/22 14:39:42;;;;;;;0.70;0.32;;;21.80;44.40;;;;;;5722172;29;20170;-47
2022/11/22 14:42:46;;;;;;;0.80;0.30;;;21.70;44.40;;;;;;5754116;29;21163;-43
2022/11/22 14:45:50;;;;;;;1.45;0.40;;;21.50;44.30;;;;;;5727417;29;20056;-44
2022/11/22 14:48:59;;;;;;;1.83;0.30;;;21.80;44.20;;;;;;5776180;29;22258;-45
2022/11/22 14:52:01;;;;;;;0.90;0.30;;;21.80;44.20;;;;;;5760154;29;20048;-44
2022/11/22 14:55:11;;;;;;;0.57;0.30;;;21.80;44.20;;;;;;5732217;29;20044;-45
2022/11/22 14:58:18;;;;;;;1.08;0.30;;;21.70;43.70;;;;;;5747271;29;20046;-44
2022/11/22 15:01:39;;;;;;;0.93;0.40;;;21.90;44.00;;;;;;5747030;29;20044;-43
2022/11/22 15:04:55;;;;;;;1.13;0.38;;;22.10;44.20;;;;;;5729864;28;20063;-47
2022/11/22 15:08:28;;;;;;;1.23;0.40;;;21.80;43.70;;;;;;5743182;29;20269;-44
2022/11/22 15:12:07;;;;;;;1.15;0.40;;;21.40;43.60;;;;;;5793498;29;21188;-44
2022/11/22 15:15:21;;;;;;;1.33;0.50;;;22.00;43.90;;;;;;5805024;29;20147;-44
2022/11/22 15:18:48;;;;;;;1.00;0.40;;;21.70;43.70;;;;;;5787549;29;20159;-45
2022/11/22 15:22:14;;;;;;;1.95;0.60;;;21.50;43.70;;;;;;5809395;29;20052;-52
2022/11/22 15:25:36;;;;;;;1.40;0.60;;;22.00;43.90;;;;;;5753771;29;20041;-45
2022/11/22 15:28:59;;;;;;;1.23;0.52;;;21.90;43.80;;;;;;5759850;29;21966;-45
2022/11/22 15:32:21;;;;;;;0.77;0.30;;;22.10;43.70;;;;;;5784150;29;23102;-46
2022/11/22 15:35:50;;;;;;;1.00;0.40;;;21.90;43.20;;;;;;5742677;29;20091;-46
2022/11/22 15:39:14;;;;;;;1.88;0.47;;;21.70;43.20;;;;;;5754542;28;20036;-45
2022/11/22 15:42:36;;;;;;;1.02;0.35;;;22.00;43.20;;;;;;5733193;29;20082;-48
2022/11/22 15:45:59;;;;;;;1.80;0.60;;;21.70;43.00;;;;;;5708727;29;20033;-45
2022/11/22 15:49:20;;;;;;;1.45;0.40;;;22.40;43.60;;;;;;5676238;29;20849;-44
2022/11/22 15:52:49;;;;;;;;;;;21.90;43.10;;;;;;5797999;29;20083;-44
2022/11/22 15:56:16;;;;;;;1.42;0.60;;;21.50;43.40;;;;;;5800145;29;19931;-44
2022/11/22 15:59:42;;;;;;;3.92;0.93;;;21.70;43.30;;;;;;5791499;29;20174;-47
2022/11/22 16:02:49;;;;;;;1.95;0.60;;;21.80;43.30;;;;;;5742527;29;22975;-46
2022/11/22 16:05:53;;;;;;;2.47;0.50;;;22.00;43.20;;;;;;5735513;29;34394;-44
2022/11/22 16:09:22;;;;;;;1.60;0.65;;;21.80;43.20;;;;;;5797141;29;20119;-45
2022/11/22 16:12:28;;;;;;;1.40;0.43;;;21.80;43.00;;;;;;5775480;29;20056;-44
2022/11/22 16:15:35;;;;;;;2.30;0.43;;;21.70;42.80;;;;;;5790177;29;20056;-46
2022/11/22 16:18:37;;;;;;;1.58;0.57;;;22.10;43.20;;;;;;5817804;29;25366;-44
2022/11/22 16:21:38;;;;;;;0.63;0.50;;;22.10;43.30;;;;;;5781208;29;20920;-44
2022/11/22 16:24:40;;;;;;;1.27;0.60;;;22.20;43.30;;;;;;5811132;29;20048;-45
2022/11/22 16:27:45;;;;;;;2.25;0.60;;;22.10;43.40;;;;;;5790438;29;20251;-47
2022/11/22 16:30:47;;;;;;;1.83;0.50;;;21.80;43.80;;;;;;5790935;29;29128;-48
2022/11/22 16:33:49;;;;;;;1.58;0.73;;;22.40;42.90;;;;;;5805199;29;20055;-44
2022/11/22 16:36:51;;;;;;;0.47;0.30;;;21.70;42.60;;;;;;5844677;29;20050;-45
2022/11/22 16:39:53;;;;;;;1.55;0.60;;;22.40;43.40;;;;;;5836613;29;20048;-44
2022/11/22 16:42:56;;;;;;;1.00;0.68;;;22.20;43.00;;;;;;5797690;29;20123;-44
2022/11/22 16:45:58;;;;;;;2.30;0.40;;;22.20;43.00;;;;;;5817509;29;20055;-43
2022/11/22 16:48:59;;;;;;;1.10;0.43;;;22.20;42.80;;;;;;5845304;29;20048;-45
2022/11/22 16:52:01;;;;;;;0.85;0.40;;;22.10;43.10;;;;;;5853950;29;20052;-44
2022/11/22 16:55:03;;;;;;;;;;;22.50;42.90;;;;;;5848668;29;21250;-45
2022/11/22 16:58:13;;;;;;;0.90;0.60;;;22.60;43.50;;;;;;5879931;29;19931;-50
2022/11/22 17:01:17;;;;;;;0.73;0.30;;;22.00;42.90;;;;;;5870056;29;20044;-48
2022/11/22 17:04:21;;;;;;;1.05;0.57;;;22.10;43.00;;;;;;5811858;29;20941;-47
2022/11/22 17:07:23;;;;;;;1.90;0.50;;;22.30;42.80;;;;;;5838872;29;20122;-45
2022/11/22 17:10:24;;;;;;;0.75;0.40;;;21.90;43.00;;;;;;5873468;29;20063;-45
2022/11/22 17:13:26;;;;;;;0.93;0.60;;;22.30;42.90;;;;;;5892720;28;20048;-46
2022/11/22 17:16:29;;;;;;;0.95;0.43;;;22.40;42.50;;;;;;5906209;29;20143;-47
2022/11/22 17:19:30;;;;;;;1.88;0.70;;;22.10;43.00;;;;;;5911716;29;20036;-45
2022/11/22 17:22:52;;;;;;;0.82;0.50;;;22.20;43.00;;;;;;5924251;29;20162;-47
2022/11/22 17:25:54;;;;;;;2.45;0.85;;;21.90;42.70;;;;;;5963039;29;20064;-44
2022/11/22 17:28:55;;;;;;;1.58;0.73;;;22.20;43.30;;;;;;5949031;29;21003;-46